sensor_id;sensor_type;location;lat;lon;timestamp;pressure;altitude;pressure_sealevel;temperature;humidity
62510;BME280;48558;48.242;11.654;2023-11-19T00:03:29;96347.69;;;4.94;100.00
62510;BME280;48558;48.242;11.654;2023-11-19T00:07:42;96333.19;;;5.13;100.00
62510;BME280;48558;48.242;11.654;2023-11-19T00:11:55;96330.47;;;5.13;100.00
62510;BME280;48558;48.242;11.654;2023-11-19T00:16:08;96309.56;;;5.19;100.00
62510;BME280;48558;48.242;11.654;2023-11-19T00:20:26;96302.03;;;5.23;100.00
62510;BME280;48558;48.242;11.654;2023-11-19T00:24:39;96294.00;;;5.32;100.00
62510;BME280;48558;48.242;11.654;2023-11-19T00:28:55;96294.50;;;5.27;100.00
62510;BME280;48558;48.242;11.654;2023-11-19T00:33:08;96284.25;;;5.15;100.00
62510;BME280;48558;48.242;11.654;2023-11-19T00:37:21;96278.06;;;5.27;100.00
62510;BME280;48558;48.242;11.654;2023-11-19T00:41:33;96286.03;;;5.38;100.00
62510;BME280;48558;48.242;11.654;2023-11-19T00:45:46;96279.16;;;5.30;100.00
62510;BME280;48558;48.242;11.654;2023-11-19T00:49:59;96263.66;;;5.55;100.00
62510;BME280;48558;48.242;11.654;2023-11-19T00:54:11;96231.50;;;5.27;100.00
62510;BME280;48558;48.242;11.654;2023-11-19T00:58:24;96259.28;;;5.58;100.00
62510;BME280;48558;48.242;11.654;2023-11-19T01:02:37;96253.47;;;5.56;100.00
62510;BME280;48558;48.242;11.654;2023-11-19T01:06:50;96251.31;;;5.63;100.00
62510;BME280;48558;48.242;11.654;2023-11-19T01:11:02;96248.72;;;5.72;100.00
62510;BME280;48558;48.242;11.654;2023-11-19T01:15:16;96247.34;;;5.80;100.00
62510;BME280;48558;48.242;11.654;2023-11-19T01:19:30;96242.81;;;5.90;100.00
62510;BME280;48558;48.242;11.654;2023-11-19T01:23:43;96233.28;;;5.95;100.00
62510;BME280;48558;48.242;11.654;2023-11-19T01:27:56;96222.72;;;5.93;100.00
62510;BME280;48558;48.242;11.654;2023-11-19T01:32:11;96219.97;;;5.93;100.00
62510;BME280;48558;48.242;11.654;2023-11-19T01:36:24;96222.53;;;6.00;100.00
62510;BME280;48558;48.242;11.654;2023-11-19T01:40:37;96216.97;;;6.04;100.00
62510;BME280;48558;48.242;11.654;2023-11-19T01:44:59;96221.03;;;6.12;100.00
62510;BME280;48558;48.242;11.654;2023-11-19T01:49:14;96218.75;;;6.23;100.00
62510;BME280;48558;48.242;11.654;2023-11-19T01:53:28;96205.16;;;6.32;100.00
62510;BME280;48558;48.242;11.654;2023-11-19T01:57:41;96208.22;;;6.34;100.00
62510;BME280;48558;48.242;11.654;2023-11-19T02:01:54;96205.38;;;6.37;100.00
62510;BME280;48558;48.242;11.654;2023-11-19T02:06:12;96194.94;;;6.45;100.00
62510;BME280;48558;48.242;11.654;2023-11-19T02:10:24;96181.22;;;6.45;100.00
62510;BME280;48558;48.242;11.654;2023-11-19T02:14:40;96171.69;;;6.62;100.00
62510;BME280;48558;48.242;11.654;2023-11-19T02:18:52;96175.09;;;6.66;100.00
62510;BME280;48558;48.242;11.654;2023-11-19T02:23:05;96159.41;;;6.67;100.00
62510;BME280;48558;48.242;11.654;2023-11-19T02:31:56;96132.00;;;6.88;100.00
62510;BME280;48558;48.242;11.654;2023-11-19T02:36:09;96131.41;;;7.06;100.00
62510;BME280;48558;48.242;11.654;2023-11-19T02:40:22;96143.25;;;7.15;100.00
62510;BME280;48558;48.242;11.654;2023-11-19T02:44:36;96109.16;;;7.26;100.00
62510;BME280;48558;48.242;11.654;2023-11-19T02:48:49;96125.22;;;7.49;100.00
62510;BME280;48558;48.242;11.654;2023-11-19T02:53:02;96113.66;;;7.54;100.00
62510;BME280;48558;48.242;11.654;2023-11-19T02:57:14;96104.97;;;7.55;100.00
62510;BME280;48558;48.242;11.654;2023-11-19T03:01:30;96097.78;;;7.58;100.00
62510;BME280;48558;48.242;11.654;2023-11-19T03:05:43;96103.34;;;7.67;100.00
62510;BME280;48558;48.242;11.654;2023-11-19T03:09:57;96090.50;;;7.64;100.00
62510;BME280;48558;48.242;11.654;2023-11-19T03:14:09;96093.31;;;7.73;100.00
62510;BME280;48558;48.242;11.654;2023-11-19T03:18:22;96086.34;;;7.81;100.00
62510;BME280;48558;48.242;11.654;2023-11-19T03:22:36;96088.88;;;7.97;100.00
62510;BME280;48558;48.242;11.654;2023-11-19T03:26:50;96089.66;;;7.97;100.00
62510;BME280;48558;48.242;11.654;2023-11-19T03:31:05;96093.22;;;8.07;100.00
62510;BME280;48558;48.242;11.654;2023-11-19T03:35:20;96080.97;;;8.08;100.00
62510;BME280;48558;48.242;11.654;2023-11-19T03:39:33;96088.88;;;8.28;100.00
62510;BME280;48558;48.242;11.654;2023-11-19T03:43:46;96094.78;;;8.17;100.00
62510;BME280;48558;48.242;11.654;2023-11-19T03:47:58;96092.34;;;8.19;100.00
62510;BME280;48558;48.242;11.654;2023-11-19T03:52:12;96104.75;;;8.24;100.00
62510;BME280;48558;48.242;11.654;2023-11-19T03:56:31;96088.63;;;8.44;100.00
62510;BME280;48558;48.242;11.654;2023-11-19T04:00:45;96087.63;;;8.59;100.00
62510;BME280;48558;48.242;11.654;2023-11-19T04:04:57;96092.28;;;8.81;100.00
62510;BME280;48558;48.242;11.654;2023-11-19T04:09:10;96090.00;;;8.97;100.00
62510;BME280;48558;48.242;11.654;2023-11-19T04:13:23;96087.88;;;9.10;100.00
62510;BME280;48558;48.242;11.654;2023-11-19T04:17:36;96098.44;;;9.12;100.00
62510;BME280;48558;48.242;11.654;2023-11-19T04:21:48;96073.63;;;9.12;100.00
62510;BME280;48558;48.242;11.654;2023-11-19T04:26:04;96101.22;;;9.30;100.00
62510;BME280;48558;48.242;11.654;2023-11-19T04:30:20;96101.97;;;9.30;100.00
62510;BME280;48558;48.242;11.654;2023-11-19T04:34:32;96091.56;;;9.25;100.00
62510;BME280;48558;48.242;11.654;2023-11-19T04:38:45;96096.94;;;9.38;100.00
62510;BME280;48558;48.242;11.654;2023-11-19T04:42:58;96082.69;;;9.30;100.00
62510;BME280;48558;48.242;11.654;2023-11-19T04:47:11;96107.97;;;9.38;100.00
62510;BME280;48558;48.242;11.654;2023-11-19T04:51:24;96098.31;;;9.43;100.00
62510;BME280;48558;48.242;11.654;2023-11-19T04:55:37;96108.41;;;9.46;100.00
62510;BME280;48558;48.242;11.654;2023-11-19T04:59:49;96109.66;;;9.45;100.00
62510;BME280;48558;48.242;11.654;2023-11-19T05:04:02;96105.66;;;9.55;100.00
62510;BME280;48558;48.242;11.654;2023-11-19T05:08:15;96103.19;;;9.48;100.00
62510;BME280;48558;48.242;11.654;2023-11-19T05:12:28;96102.59;;;9.53;100.00
62510;BME280;48558;48.242;11.654;2023-11-19T05:16:40;96102.59;;;9.62;100.00
62510;BME280;48558;48.242;11.654;2023-11-19T05:20:54;96110.72;;;9.56;100.00
62510;BME280;48558;48.242;11.654;2023-11-19T05:25:06;96128.50;;;9.64;100.00
62510;BME280;48558;48.242;11.654;2023-11-19T05:29:20;96114.38;;;9.71;100.00
62510;BME280;48558;48.242;11.654;2023-11-19T05:33:33;96123.28;;;9.66;100.00
62510;BME280;48558;48.242;11.654;2023-11-19T05:37:45;96107.03;;;9.68;100.00
62510;BME280;48558;48.242;11.654;2023-11-19T05:41:58;96097.53;;;9.69;100.00
62510;BME280;48558;48.242;11.654;2023-11-19T05:46:12;96115.59;;;9.79;100.00
62510;BME280;48558;48.242;11.654;2023-11-19T05:50:28;96118.22;;;9.83;100.00
62510;BME280;48558;48.242;11.654;2023-11-19T05:54:40;96109.00;;;9.86;100.00
62510;BME280;48558;48.242;11.654;2023-11-19T05:58:54;96103.78;;;9.88;100.00
62510;BME280;48558;48.242;11.654;2023-11-19T06:03:09;96117.44;;;9.82;100.00
62510;BME280;48558;48.242;11.654;2023-11-19T06:07:22;96093.50;;;9.88;100.00
62510;BME280;48558;48.242;11.654;2023-11-19T06:11:35;96096.88;;;9.92;100.00
62510;BME280;48558;48.242;11.654;2023-11-19T06:15:48;96112.81;;;9.88;100.00
62510;BME280;48558;48.242;11.654;2023-11-19T06:20:00;96091.09;;;9.81;100.00
62510;BME280;48558;48.242;11.654;2023-11-19T06:24:13;96112.34;;;9.99;100.00
62510;BME280;48558;48.242;11.654;2023-11-19T06:28:26;96092.44;;;9.95;100.00
62510;BME280;48558;48.242;11.654;2023-11-19T06:32:39;96100.22;;;10.05;100.00
62510;BME280;48558;48.242;11.654;2023-11-19T06:36:52;96098.38;;;10.12;100.00
62510;BME280;48558;48.242;11.654;2023-11-19T06:41:07;96120.44;;;10.21;100.00
62510;BME280;48558;48.242;11.654;2023-11-19T06:45:21;96106.22;;;10.13;100.00
62510;BME280;48558;48.242;11.654;2023-11-19T06:49:33;96095.28;;;10.28;100.00
62510;BME280;48558;48.242;11.654;2023-11-19T06:53:46;96109.25;;;10.24;100.00
62510;BME280;48558;48.242;11.654;2023-11-19T06:58:00;96115.69;;;10.30;100.00
62510;BME280;48558;48.242;11.654;2023-11-19T07:02:14;96107.56;;;10.27;100.00
62510;BME280;48558;48.242;11.654;2023-11-19T07:06:27;96118.06;;;10.46;100.00
62510;BME280;48558;48.242;11.654;2023-11-19T07:10:42;96126.78;;;10.54;100.00
62510;BME280;48558;48.242;11.654;2023-11-19T07:14:55;96120.03;;;10.55;100.00
62510;BME280;48558;48.242;11.654;2023-11-19T07:19:08;96136.28;;;10.62;100.00
62510;BME280;48558;48.242;11.654;2023-11-19T07:23:20;96126.69;;;10.72;100.00
62510;BME280;48558;48.242;11.654;2023-11-19T07:27:33;96123.78;;;10.75;100.00
62510;BME280;48558;48.242;11.654;2023-11-19T07:31:46;96130.91;;;10.91;100.00
62510;BME280;48558;48.242;11.654;2023-11-19T07:35:59;96138.91;;;10.89;100.00
62510;BME280;48558;48.242;11.654;2023-11-19T07:40:11;96154.34;;;11.05;100.00
62510;BME280;48558;48.242;11.654;2023-11-19T07:44:24;96155.47;;;10.98;100.00
62510;BME280;48558;48.242;11.654;2023-11-19T07:48:37;96167.59;;;11.01;100.00
62510;BME280;48558;48.242;11.654;2023-11-19T07:52:50;96163.22;;;11.09;100.00
62510;BME280;48558;48.242;11.654;2023-11-19T07:57:02;96163.81;;;11.13;100.00
62510;BME280;48558;48.242;11.654;2023-11-19T08:01:15;96150.94;;;11.10;100.00
62510;BME280;48558;48.242;11.654;2023-11-19T08:05:28;96166.84;;;11.24;100.00
62510;BME280;48558;48.242;11.654;2023-11-19T08:09:41;96168.19;;;11.28;100.00
62510;BME280;48558;48.242;11.654;2023-11-19T08:13:53;96182.78;;;11.29;100.00
62510;BME280;48558;48.242;11.654;2023-11-19T08:18:06;96178.78;;;11.30;100.00
62510;BME280;48558;48.242;11.654;2023-11-19T08:22:19;96164.34;;;11.49;100.00
62510;BME280;48558;48.242;11.654;2023-11-19T08:26:32;96161.66;;;11.64;100.00
62510;BME280;48558;48.242;11.654;2023-11-19T08:30:44;96167.31;;;11.70;100.00
62510;BME280;48558;48.242;11.654;2023-11-19T08:34:57;96155.72;;;11.80;100.00
62510;BME280;48558;48.242;11.654;2023-11-19T08:39:09;96155.44;;;11.93;100.00
62510;BME280;48558;48.242;11.654;2023-11-19T08:43:22;96155.78;;;11.86;100.00
62510;BME280;48558;48.242;11.654;2023-11-19T08:47:37;96169.63;;;11.86;100.00
62510;BME280;48558;48.242;11.654;2023-11-19T08:51:49;96166.78;;;11.80;100.00
62510;BME280;48558;48.242;11.654;2023-11-19T08:56:02;96164.47;;;11.79;100.00
62510;BME280;48558;48.242;11.654;2023-11-19T09:00:15;96164.03;;;11.95;100.00
62510;BME280;48558;48.242;11.654;2023-11-19T09:04:28;96165.56;;;11.96;100.00
62510;BME280;48558;48.242;11.654;2023-11-19T09:08:43;96156.03;;;12.11;100.00
62510;BME280;48558;48.242;11.654;2023-11-19T09:12:56;96156.22;;;12.37;100.00
62510;BME280;48558;48.242;11.654;2023-11-19T09:17:09;96150.38;;;12.64;100.00
62510;BME280;48558;48.242;11.654;2023-11-19T09:21:22;96154.59;;;12.74;100.00
62510;BME280;48558;48.242;11.654;2023-11-19T09:25:35;96149.47;;;13.02;100.00
62510;BME280;48558;48.242;11.654;2023-11-19T09:29:50;96160.41;;;13.26;100.00
62510;BME280;48558;48.242;11.654;2023-11-19T09:34:09;96151.47;;;13.36;100.00
62510;BME280;48558;48.242;11.654;2023-11-19T09:38:21;96159.44;;;13.29;100.00
62510;BME280;48558;48.242;11.654;2023-11-19T09:42:43;96150.84;;;13.27;100.00
62510;BME280;48558;48.242;11.654;2023-11-19T09:46:59;96159.03;;;13.36;100.00
62510;BME280;48558;48.242;11.654;2023-11-19T09:51:11;96157.50;;;13.35;100.00
62510;BME280;48558;48.242;11.654;2023-11-19T09:55:24;96159.97;;;12.98;100.00
62510;BME280;48558;48.242;11.654;2023-11-19T09:59:38;96159.22;;;12.48;100.00
62510;BME280;48558;48.242;11.654;2023-11-19T10:03:55;96164.94;;;12.59;100.00
62510;BME280;48558;48.242;11.654;2023-11-19T10:08:08;96134.34;;;12.68;100.00
62510;BME280;48558;48.242;11.654;2023-11-19T10:12:21;96142.66;;;13.18;100.00
62510;BME280;48558;48.242;11.654;2023-11-19T10:16:34;96140.84;;;13.35;100.00
62510;BME280;48558;48.242;11.654;2023-11-19T10:20:47;96126.84;;;13.44;100.00
62510;BME280;48558;48.242;11.654;2023-11-19T10:25:00;96137.16;;;13.84;100.00
62510;BME280;48558;48.242;11.654;2023-11-19T10:29:13;96133.09;;;13.79;100.00
62510;BME280;48558;48.242;11.654;2023-11-19T10:33:32;96113.50;;;13.88;100.00
62510;BME280;48558;48.242;11.654;2023-11-19T10:37:45;96098.28;;;13.84;100.00
62510;BME280;48558;48.242;11.654;2023-11-19T10:42:14;96103.94;;;14.20;100.00
62510;BME280;48558;48.242;11.654;2023-11-19T10:46:42;96103.31;;;14.31;100.00
62510;BME280;48558;48.242;11.654;2023-11-19T10:50:56;96101.19;;;13.95;100.00
62510;BME280;48558;48.242;11.654;2023-11-19T10:55:11;96091.28;;;13.88;100.00
62510;BME280;48558;48.242;11.654;2023-11-19T10:59:30;96094.31;;;13.90;100.00
62510;BME280;48558;48.242;11.654;2023-11-19T11:03:47;96076.81;;;13.84;100.00
62510;BME280;48558;48.242;11.654;2023-11-19T11:08:00;96060.69;;;14.40;100.00
62510;BME280;48558;48.242;11.654;2023-11-19T11:12:17;96056.50;;;14.55;100.00
62510;BME280;48558;48.242;11.654;2023-11-19T11:16:37;96073.56;;;14.74;100.00
62510;BME280;48558;48.242;11.654;2023-11-19T11:21:02;96075.28;;;14.66;100.00
62510;BME280;48558;48.242;11.654;2023-11-19T11:30:24;96072.50;;;14.66;100.00
62510;BME280;48558;48.242;11.654;2023-11-19T11:34:49;96086.13;;;14.64;100.00
62510;BME280;48558;48.242;11.654;2023-11-19T11:39:08;96086.91;;;14.64;100.00
62510;BME280;48558;48.242;11.654;2023-11-19T11:43:44;96077.44;;;14.51;100.00
62510;BME280;48558;48.242;11.654;2023-11-19T11:52:10;96047.50;;;14.71;100.00
62510;BME280;48558;48.242;11.654;2023-11-19T11:56:33;96046.47;;;14.69;100.00
62510;BME280;48558;48.242;11.654;2023-11-19T12:00:47;96061.66;;;14.36;100.00
62510;BME280;48558;48.242;11.654;2023-11-19T12:05:00;96057.34;;;14.67;99.42
62510;BME280;48558;48.242;11.654;2023-11-19T12:09:16;96049.59;;;14.82;98.65
62510;BME280;48558;48.242;11.654;2023-11-19T12:13:47;96055.22;;;14.87;93.56
62510;BME280;48558;48.242;11.654;2023-11-19T12:18:07;96036.50;;;14.93;92.39
62510;BME280;48558;48.242;11.654;2023-11-19T12:22:20;96056.31;;;15.65;88.64
62510;BME280;48558;48.242;11.654;2023-11-19T12:26:43;96049.03;;;15.20;89.35
62510;BME280;48558;48.242;11.654;2023-11-19T12:31:07;96058.09;;;15.09;89.02
62510;BME280;48558;48.242;11.654;2023-11-19T12:35:23;96047.22;;;15.12;90.89
62510;BME280;48558;48.242;11.654;2023-11-19T12:39:36;96034.84;;;15.13;90.58
62510;BME280;48558;48.242;11.654;2023-11-19T12:43:49;96026.97;;;15.75;86.15
62510;BME280;48558;48.242;11.654;2023-11-19T12:48:07;96012.06;;;16.17;84.16
62510;BME280;48558;48.242;11.654;2023-11-19T12:52:22;96016.88;;;15.78;83.50
62510;BME280;48558;48.242;11.654;2023-11-19T12:56:35;96009.59;;;15.27;85.45
62510;BME280;48558;48.242;11.654;2023-11-19T13:01:07;96017.72;;;15.36;88.37
62510;BME280;48558;48.242;11.654;2023-11-19T13:05:34;96000.44;;;15.16;88.16
62510;BME280;48558;48.242;11.654;2023-11-19T13:09:47;96002.84;;;15.45;86.01
62510;BME280;48558;48.242;11.654;2023-11-19T13:14:04;95990.44;;;15.51;84.31
62510;BME280;48558;48.242;11.654;2023-11-19T13:18:17;96004.25;;;15.18;85.74
62510;BME280;48558;48.242;11.654;2023-11-19T13:22:30;96003.84;;;14.83;86.66
62510;BME280;48558;48.242;11.654;2023-11-19T13:26:42;96003.78;;;14.72;87.79
62510;BME280;48558;48.242;11.654;2023-11-19T13:30:55;95963.91;;;14.44;89.36
62510;BME280;48558;48.242;11.654;2023-11-19T13:35:08;95983.94;;;14.53;90.60
62510;BME280;48558;48.242;11.654;2023-11-19T13:39:21;95975.31;;;14.46;92.43
62510;BME280;48558;48.242;11.654;2023-11-19T13:43:36;95969.78;;;14.51;93.24
62510;BME280;48558;48.242;11.654;2023-11-19T13:47:49;95976.91;;;14.58;91.11
62510;BME280;48558;48.242;11.654;2023-11-19T13:52:01;95969.25;;;14.47;92.64
62510;BME280;48558;48.242;11.654;2023-11-19T13:56:14;95977.53;;;14.78;90.03
62510;BME280;48558;48.242;11.654;2023-11-19T14:00:27;95964.38;;;14.84;89.19
62510;BME280;48558;48.242;11.654;2023-11-19T14:04:39;95967.28;;;14.59;90.65
62510;BME280;48558;48.242;11.654;2023-11-19T14:08:52;95965.50;;;14.56;92.19
62510;BME280;48558;48.242;11.654;2023-11-19T14:13:04;95959.81;;;14.76;90.49
62510;BME280;48558;48.242;11.654;2023-11-19T14:17:17;95962.78;;;14.67;91.17
62510;BME280;48558;48.242;11.654;2023-11-19T14:21:30;95960.31;;;14.74;92.76
62510;BME280;48558;48.242;11.654;2023-11-19T14:25:43;95960.63;;;14.40;94.26
62510;BME280;48558;48.242;11.654;2023-11-19T14:30:07;95960.66;;;14.14;96.25
62510;BME280;48558;48.242;11.654;2023-11-19T14:34:24;95971.16;;;13.99;98.53
62510;BME280;48558;48.242;11.654;2023-11-19T14:38:48;95981.59;;;14.09;97.62
62510;BME280;48558;48.242;11.654;2023-11-19T14:43:11;95971.22;;;14.04;99.71
62510;BME280;48558;48.242;11.654;2023-11-19T14:47:24;95963.44;;;14.14;98.39
62510;BME280;48558;48.242;11.654;2023-11-19T14:51:37;95966.75;;;13.87;100.00
62510;BME280;48558;48.242;11.654;2023-11-19T14:55:50;95972.00;;;13.79;100.00
62510;BME280;48558;48.242;11.654;2023-11-19T15:00:03;95961.50;;;13.63;100.00
62510;BME280;48558;48.242;11.654;2023-11-19T15:04:25;95960.69;;;13.57;99.60
62510;BME280;48558;48.242;11.654;2023-11-19T15:08:37;95960.00;;;13.36;100.00
62510;BME280;48558;48.242;11.654;2023-11-19T15:12:50;95965.09;;;13.18;100.00
62510;BME280;48558;48.242;11.654;2023-11-19T15:17:03;95957.06;;;13.25;100.00
62510;BME280;48558;48.242;11.654;2023-11-19T15:21:18;95956.81;;;13.03;100.00
62510;BME280;48558;48.242;11.654;2023-11-19T15:25:30;95959.94;;;12.90;100.00
62510;BME280;48558;48.242;11.654;2023-11-19T15:29:43;95952.81;;;12.84;100.00
62510;BME280;48558;48.242;11.654;2023-11-19T15:33:56;95954.28;;;12.79;100.00
62510;BME280;48558;48.242;11.654;2023-11-19T15:38:09;95958.97;;;12.53;100.00
62510;BME280;48558;48.242;11.654;2023-11-19T15:42:22;95962.44;;;12.48;100.00
62510;BME280;48558;48.242;11.654;2023-11-19T15:46:35;95968.53;;;12.52;100.00
62510;BME280;48558;48.242;11.654;2023-11-19T15:50:47;95981.00;;;12.62;100.00
62510;BME280;48558;48.242;11.654;2023-11-19T15:55:00;95975.59;;;12.53;100.00
62510;BME280;48558;48.242;11.654;2023-11-19T15:59:12;95985.41;;;12.34;100.00
62510;BME280;48558;48.242;11.654;2023-11-19T16:03:25;95981.09;;;12.33;100.00
62510;BME280;48558;48.242;11.654;2023-11-19T16:07:38;95985.53;;;12.25;100.00
62510;BME280;48558;48.242;11.654;2023-11-19T16:11:56;95994.88;;;12.28;100.00
62510;BME280;48558;48.242;11.654;2023-11-19T16:16:09;95979.38;;;12.36;100.00
62510;BME280;48558;48.242;11.654;2023-11-19T16:20:22;95948.31;;;12.11;100.00
62510;BME280;48558;48.242;11.654;2023-11-19T16:24:38;95985.13;;;12.32;100.00
62510;BME280;48558;48.242;11.654;2023-11-19T16:28:50;95979.72;;;12.23;100.00
62510;BME280;48558;48.242;11.654;2023-11-19T16:33:03;95992.41;;;12.15;100.00
62510;BME280;48558;48.242;11.654;2023-11-19T16:37:24;95960.72;;;12.01;100.00
62510;BME280;48558;48.242;11.654;2023-11-19T16:41:37;95978.88;;;12.02;100.00
